メインページ
METAR-TAF:

METAR-TAF

空港 :

Port Hardy, ブリティッシュコロンビア州, カナダ

緯度: 50-41N, 経度: 127-22W, 海抜: 22m

現時点の気象観測

当レポートは50分前の20:00(UTC)に作成
東/南東の風 27kt、最大34ktの突風を伴う
気温 5°C
湿度 87%
気圧 1004 hPa
視程: 24.1km
高度1000ftの雲はほとんどない
高度4700ftの曇り

METAR: CYZT 152000Z 11027G34KT 15SM FEW010 OVC047 05/03 A2965 RMK SF1SC8 SF TR SLP042

時間: 12:50 (20:50 UTC)

予報

当レポートは2時間12分前の18:38(UTC)に作成
予報は15日の 19時(UTC)から 16日の 07時(UTC)まで有効
東/南東の風 30kt、最大45ktの突風を伴う
視程: 10km
高度5000ftの千切れ雲あり
高度20000ftの曇り
15日の 19時(UTC)から 16日の 03時(UTC)まで一時的に
視程: 10km
高度5000ftの曇り
小雨
16日の 0300時(UTC)から
東/南東の風 30kt、最大45ktの突風を伴う
視程: 10km
高度3000ftの曇り
小雨

TAF: CYZT 151838Z 1519/1607 11030G45KT P6SM BKN050 OVC200 TEMPO 1519/1603 P6SM -RA OVC050 FM160300 12030G45KT P6SM -RA OVC030 RMK NXT FCST BY 160100Z

4,000以上の空港の気象観測と天気予報(METAR報とTAF報)

利用可能な観測所は地図上に黄色い丸と赤い丸で示す。

丸の上にカーソルを重ねると観測所名を参照できる。

次にクリックすると気象観測と天気予報を参照できる。

マップの切り替え:黒色「×」印の緑ボタンをクリックして拡大、「-」印の緑ボタンをクリックして縮小、緑色の三角印をクリックして隣りの地図に切り替え


METAR-TAF: